sensor_id;sensor_type;location;lat;lon;timestamp;P1;P2;P0
30713;PMS7003;17465;47.934;33.430;2023-01-13T00:00:49;67.25;57.50;44.00
30713;PMS7003;17465;47.934;33.430;2023-01-13T00:03:19;68.00;56.25;43.25
30713;PMS7003;17465;47.934;33.430;2023-01-13T00:05:51;40.75;39.00;31.50
30713;PMS7003;17465;47.934;33.430;2023-01-13T00:08:22;60.50;52.75;38.75
30713;PMS7003;17465;47.934;33.430;2023-01-13T00:10:53;55.00;49.00;41.00
30713;PMS7003;17465;47.934;33.430;2023-01-13T00:13:26;53.50;47.75;35.25
30713;PMS7003;17465;47.934;33.430;2023-01-13T00:16:01;64.00;54.50;41.00
30713;PMS7003;17465;47.934;33.430;2023-01-13T00:18:33;60.25;51.75;39.25
30713;PMS7003;17465;47.934;33.430;2023-01-13T00:21:08;64.50;54.75;41.00
30713;PMS7003;17465;47.934;33.430;2023-01-13T00:23:47;44.00;42.25;36.75
30713;PMS7003;17465;47.934;33.430;2023-01-13T00:26:20;65.50;54.25;41.00
30713;PMS7003;17465;47.934;33.430;2023-01-13T00:28:56;56.25;51.00;42.00
30713;PMS7003;17465;47.934;33.430;2023-01-13T00:31:35;52.25;47.75;39.25
30713;PMS7003;17465;47.934;33.430;2023-01-13T00:34:06;50.50;45.75;38.50
30713;PMS7003;17465;47.934;33.430;2023-01-13T00:36:36;41.75;40.50;32.50
30713;PMS7003;17465;47.934;33.430;2023-01-13T00:39:08;34.00;34.00;24.75
30713;PMS7003;17465;47.934;33.430;2023-01-13T00:41:39;32.25;26.75;17.00
30713;PMS7003;17465;47.934;33.430;2023-01-13T00:44:09;41.25;38.00;24.50
30713;PMS7003;17465;47.934;33.430;2023-01-13T00:46:40;34.00;30.00;27.50
30713;PMS7003;17465;47.934;33.430;2023-01-13T00:49:11;43.25;42.50;24.75
30713;PMS7003;17465;47.934;33.430;2023-01-13T00:51:42;49.25;42.50;28.00
30713;PMS7003;17465;47.934;33.430;2023-01-13T00:54:13;42.00;35.75;21.00
30713;PMS7003;17465;47.934;33.430;2023-01-13T00:56:45;33.50;31.00;25.75
30713;PMS7003;17465;47.934;33.430;2023-01-13T00:59:15;45.00;38.50;26.00
30713;PMS7003;17465;47.934;33.430;2023-01-13T01:01:46;50.00;44.75;26.75
30713;PMS7003;17465;47.934;33.430;2023-01-13T01:04:16;55.75;48.50;30.50
30713;PMS7003;17465;47.934;33.430;2023-01-13T01:06:47;59.25;47.00;29.00
30713;PMS7003;17465;47.934;33.430;2023-01-13T01:09:18;64.75;51.75;29.50
30713;PMS7003;17465;47.934;33.430;2023-01-13T01:11:48;51.00;46.00;28.25
30713;PMS7003;17465;47.934;33.430;2023-01-13T01:14:19;55.00;48.50;27.50
30713;PMS7003;17465;47.934;33.430;2023-01-13T01:16:50;55.25;48.00;30.00
30713;PMS7003;17465;47.934;33.430;2023-01-13T01:19:22;61.25;49.50;30.50
30713;PMS7003;17465;47.934;33.430;2023-01-13T01:21:52;41.75;34.00;10.25
30713;PMS7003;17465;47.934;33.430;2023-01-13T01:24:22;36.50;34.00;20.75
30713;PMS7003;17465;47.934;33.430;2023-01-13T01:26:53;49.00;45.25;28.00
30713;PMS7003;17465;47.934;33.430;2023-01-13T01:29:23;64.25;53.00;33.50
30713;PMS7003;17465;47.934;33.430;2023-01-13T01:31:58;55.00;46.50;31.50
30713;PMS7003;17465;47.934;33.430;2023-01-13T01:34:30;63.50;53.00;32.25
30713;PMS7003;17465;47.934;33.430;2023-01-13T01:37:00;60.50;52.25;29.75
30713;PMS7003;17465;47.934;33.430;2023-01-13T01:39:31;57.25;48.50;31.25
30713;PMS7003;17465;47.934;33.430;2023-01-13T01:42:02;47.25;43.00;24.50
30713;PMS7003;17465;47.934;33.430;2023-01-13T01:47:21;56.50;49.00;32.00
30713;PMS7003;17465;47.934;33.430;2023-01-13T01:49:54;64.50;52.50;30.50
30713;PMS7003;17465;47.934;33.430;2023-01-13T01:52:28;64.50;51.00;29.00
30713;PMS7003;17465;47.934;33.430;2023-01-13T01:55:13;64.50;54.00;30.25
30713;PMS7003;17465;47.934;33.430;2023-01-13T02:00:27;66.50;51.00;26.25
30713;PMS7003;17465;47.934;33.430;2023-01-13T02:02:58;52.50;45.00;22.25
30713;PMS7003;17465;47.934;33.430;2023-01-13T02:05:30;65.00;49.00;24.00
30713;PMS7003;17465;47.934;33.430;2023-01-13T02:08:00;62.50;49.75;21.50
30713;PMS7003;17465;47.934;33.430;2023-01-13T02:10:32;45.50;35.25;19.00
30713;PMS7003;17465;47.934;33.430;2023-01-13T02:13:05;54.00;45.00;19.50
30713;PMS7003;17465;47.934;33.430;2023-01-13T02:16:23;53.50;45.25;20.25
30713;PMS7003;17465;47.934;33.430;2023-01-13T02:18:50;69.75;52.75;31.75
30713;PMS7003;17465;47.934;33.430;2023-01-13T02:27:43;60.00;50.00;35.50
30713;PMS7003;17465;47.934;33.430;2023-01-13T02:30:34;73.50;60.25;36.50
30713;PMS7003;17465;47.934;33.430;2023-01-13T02:33:16;73.00;58.50;34.25
30713;PMS7003;17465;47.934;33.430;2023-01-13T02:35:50;72.50;57.25;33.00
30713;PMS7003;17465;47.934;33.430;2023-01-13T02:38:24;56.50;47.75;28.00
30713;PMS7003;17465;47.934;33.430;2023-01-13T02:41:14;65.00;53.00;24.75
30713;PMS7003;17465;47.934;33.430;2023-01-13T02:43:52;68.00;49.50;26.75
30713;PMS7003;17465;47.934;33.430;2023-01-13T02:46:26;67.75;52.25;23.25
30713;PMS7003;17465;47.934;33.430;2023-01-13T02:49:01;50.75;43.25;16.75
30713;PMS7003;17465;47.934;33.430;2023-01-13T02:51:35;44.25;41.00;17.00
30713;PMS7003;17465;47.934;33.430;2023-01-13T02:54:11;49.25;40.50;17.00
30713;PMS7003;17465;47.934;33.430;2023-01-13T02:56:43;41.75;38.75;20.50
30713;PMS7003;17465;47.934;33.430;2023-01-13T02:59:16;45.50;41.50;21.00
30713;PMS7003;17465;47.934;33.430;2023-01-13T03:01:48;56.75;45.75;24.50
30713;PMS7003;17465;47.934;33.430;2023-01-13T03:07:18;57.00;48.00;26.00
30713;PMS7003;17465;47.934;33.430;2023-01-13T03:10:11;52.75;46.25;24.75
30713;PMS7003;17465;47.934;33.430;2023-01-13T03:24:35;36.00;32.75;12.00
30713;PMS7003;17465;47.934;33.430;2023-01-13T03:27:28;27.50;27.50;10.25
30713;PMS7003;17465;47.934;33.430;2023-01-13T03:30:09;49.50;39.50;17.00
30713;PMS7003;17465;47.934;33.430;2023-01-13T03:32:54;48.50;43.25;16.75
30713;PMS7003;17465;47.934;33.430;2023-01-13T03:35:37;46.50;41.50;19.50
30713;PMS7003;17465;47.934;33.430;2023-01-13T03:38:20;53.25;44.50;20.00
30713;PMS7003;17465;47.934;33.430;2023-01-13T03:41:28;50.50;42.50;17.25
30713;PMS7003;17465;47.934;33.430;2023-01-13T03:43:41;52.00;42.75;16.00
30713;PMS7003;17465;47.934;33.430;2023-01-13T03:46:22;52.75;45.00;21.25
30713;PMS7003;17465;47.934;33.430;2023-01-13T03:48:52;48.75;45.75;20.50
30713;PMS7003;17465;47.934;33.430;2023-01-13T03:51:26;55.25;46.00;21.25
30713;PMS7003;17465;47.934;33.430;2023-01-13T03:54:01;46.75;38.75;20.75
30713;PMS7003;17465;47.934;33.430;2023-01-13T03:56:48;41.00;37.00;21.50
30713;PMS7003;17465;47.934;33.430;2023-01-13T03:59:17;57.00;45.50;18.75
30713;PMS7003;17465;47.934;33.430;2023-01-13T04:01:56;42.00;36.50;15.50
30713;PMS7003;17465;47.934;33.430;2023-01-13T04:04:43;34.50;30.25;10.00
30713;PMS7003;17465;47.934;33.430;2023-01-13T04:07:26;39.25;36.50;15.75
30713;PMS7003;17465;47.934;33.430;2023-01-13T04:10:05;40.25;34.25;14.50
30713;PMS7003;17465;47.934;33.430;2023-01-13T04:12:43;53.75;45.50;23.00
30713;PMS7003;17465;47.934;33.430;2023-01-13T04:15:18;46.75;40.00;17.50
30713;PMS7003;17465;47.934;33.430;2023-01-13T04:17:51;63.00;47.75;24.25
30713;PMS7003;17465;47.934;33.430;2023-01-13T04:20:22;56.75;50.75;27.25
30713;PMS7003;17465;47.934;33.430;2023-01-13T04:22:53;59.50;48.75;28.75
30713;PMS7003;17465;47.934;33.430;2023-01-13T04:25:24;54.50;45.50;24.00
30713;PMS7003;17465;47.934;33.430;2023-01-13T04:28:00;57.25;48.00;21.25
30713;PMS7003;17465;47.934;33.430;2023-01-13T04:30:26;55.25;49.75;30.25
30713;PMS7003;17465;47.934;33.430;2023-01-13T04:32:57;62.25;49.00;21.00
30713;PMS7003;17465;47.934;33.430;2023-01-13T04:35:28;58.75;48.50;24.50
30713;PMS7003;17465;47.934;33.430;2023-01-13T04:38:03;74.25;58.75;31.00
30713;PMS7003;17465;47.934;33.430;2023-01-13T04:40:36;70.00;57.00;29.00
30713;PMS7003;17465;47.934;33.430;2023-01-13T04:43:09;48.75;40.75;14.00
30713;PMS7003;17465;47.934;33.430;2023-01-13T04:45:41;61.25;48.00;21.25
30713;PMS7003;17465;47.934;33.430;2023-01-13T04:48:11;48.75;40.75;14.25
30713;PMS7003;17465;47.934;33.430;2023-01-13T04:50:42;56.25;47.50;23.25
30713;PMS7003;17465;47.934;33.430;2023-01-13T04:53:13;50.50;44.25;21.25
30713;PMS7003;17465;47.934;33.430;2023-01-13T04:55:44;41.75;39.50;19.25
30713;PMS7003;17465;47.934;33.430;2023-01-13T04:58:14;25.50;23.25;7.50
30713;PMS7003;17465;47.934;33.430;2023-01-13T05:00:45;30.50;28.00;15.75
30713;PMS7003;17465;47.934;33.430;2023-01-13T05:03:15;41.25;35.75;19.75
30713;PMS7003;17465;47.934;33.430;2023-01-13T05:05:49;35.00;28.25;16.50
30713;PMS7003;17465;47.934;33.430;2023-01-13T05:08:19;43.75;36.25;18.75
30713;PMS7003;17465;47.934;33.430;2023-01-13T05:10:51;57.25;44.25;25.25
30713;PMS7003;17465;47.934;33.430;2023-01-13T05:13:24;48.25;37.50;20.75
30713;PMS7003;17465;47.934;33.430;2023-01-13T05:15:54;64.00;49.25;28.00
30713;PMS7003;17465;47.934;33.430;2023-01-13T05:18:26;44.00;39.00;22.25
30713;PMS7003;17465;47.934;33.430;2023-01-13T05:20:58;49.25;43.25;26.50
30713;PMS7003;17465;47.934;33.430;2023-01-13T05:23:31;50.75;45.75;23.75
30713;PMS7003;17465;47.934;33.430;2023-01-13T05:26:04;57.00;46.25;24.50
30713;PMS7003;17465;47.934;33.430;2023-01-13T05:28:35;65.75;52.25;30.75
30713;PMS7003;17465;47.934;33.430;2023-01-13T05:31:07;58.25;48.25;26.75
30713;PMS7003;17465;47.934;33.430;2023-01-13T05:33:37;50.25;45.25;23.75
30713;PMS7003;17465;47.934;33.430;2023-01-13T05:36:08;49.50;45.00;29.25
30713;PMS7003;17465;47.934;33.430;2023-01-13T05:38:39;66.25;54.75;34.50
30713;PMS7003;17465;47.934;33.430;2023-01-13T05:41:10;64.75;53.75;34.00
30713;PMS7003;17465;47.934;33.430;2023-01-13T05:43:40;60.00;48.25;29.50
30713;PMS7003;17465;47.934;33.430;2023-01-13T05:46:11;46.00;42.50;24.25
30713;PMS7003;17465;47.934;33.430;2023-01-13T05:48:42;59.75;48.25;31.50
30713;PMS7003;17465;47.934;33.430;2023-01-13T05:51:12;42.25;37.25;27.00
30713;PMS7003;17465;47.934;33.430;2023-01-13T05:53:44;50.25;45.25;28.75
30713;PMS7003;17465;47.934;33.430;2023-01-13T05:56:14;49.50;47.25;31.25
30713;PMS7003;17465;47.934;33.430;2023-01-13T05:58:47;27.50;20.00;15.50
30713;PMS7003;17465;47.934;33.430;2023-01-13T06:01:18;59.50;47.25;32.50
30713;PMS7003;17465;47.934;33.430;2023-01-13T06:03:48;81.25;62.75;40.50
30713;PMS7003;17465;47.934;33.430;2023-01-13T06:06:18;64.75;52.00;31.25
30713;PMS7003;17465;47.934;33.430;2023-01-13T06:08:49;39.25;35.75;25.50
30713;PMS7003;17465;47.934;33.430;2023-01-13T06:11:20;49.25;44.00;28.75
30713;PMS7003;17465;47.934;33.430;2023-01-13T06:13:50;34.00;31.50;17.50
30713;PMS7003;17465;47.934;33.430;2023-01-13T06:16:20;45.00;43.00;29.75
30713;PMS7003;17465;47.934;33.430;2023-01-13T06:18:51;39.00;37.00;22.25
30713;PMS7003;17465;47.934;33.430;2023-01-13T06:21:22;38.00;32.00;14.25
30713;PMS7003;17465;47.934;33.430;2023-01-13T06:23:52;44.25;42.00;27.00
30713;PMS7003;17465;47.934;33.430;2023-01-13T06:26:22;34.75;30.25;19.00
30713;PMS7003;17465;47.934;33.430;2023-01-13T06:29:03;33.00;27.00;13.00
30713;PMS7003;17465;47.934;33.430;2023-01-13T06:31:34;31.50;25.50;14.50
30713;PMS7003;17465;47.934;33.430;2023-01-13T06:34:08;93.00;73.25;46.50
30713;PMS7003;17465;47.934;33.430;2023-01-13T06:36:47;27.00;25.75;13.25
30713;PMS7003;17465;47.934;33.430;2023-01-13T06:39:24;32.25;29.50;15.75
30713;PMS7003;17465;47.934;33.430;2023-01-13T06:41:57;26.75;25.50;13.00
30713;PMS7003;17465;47.934;33.430;2023-01-13T06:44:37;20.75;17.75;9.75
30713;PMS7003;17465;47.934;33.430;2023-01-13T06:47:28;20.25;20.25;11.25
30713;PMS7003;17465;47.934;33.430;2023-01-13T06:49:57;26.75;22.50;12.25
30713;PMS7003;17465;47.934;33.430;2023-01-13T06:52:29;22.25;21.50;11.75
30713;PMS7003;17465;47.934;33.430;2023-01-13T06:55:01;25.25;21.75;11.00
30713;PMS7003;17465;47.934;33.430;2023-01-13T06:57:52;21.50;19.25;10.00
30713;PMS7003;17465;47.934;33.430;2023-01-13T07:00:29;20.00;18.50;9.00
30713;PMS7003;17465;47.934;33.430;2023-01-13T07:03:13;34.50;29.75;13.00
30713;PMS7003;17465;47.934;33.430;2023-01-13T07:06:04;37.75;30.50;13.50
30713;PMS7003;17465;47.934;33.430;2023-01-13T07:08:35;40.25;33.50;20.00
30713;PMS7003;17465;47.934;33.430;2023-01-13T07:11:06;42.75;38.00;20.50
30713;PMS7003;17465;47.934;33.430;2023-01-13T07:13:36;18.00;17.00;6.00
30713;PMS7003;17465;47.934;33.430;2023-01-13T07:16:07;35.50;33.00;15.25
30713;PMS7003;17465;47.934;33.430;2023-01-13T07:18:38;27.75;26.50;11.25
30713;PMS7003;17465;47.934;33.430;2023-01-13T07:21:10;12.50;9.00;4.00
30713;PMS7003;17465;47.934;33.430;2023-01-13T07:23:43;28.75;25.75;10.75
30713;PMS7003;17465;47.934;33.430;2023-01-13T07:26:14;14.25;10.75;2.25
30713;PMS7003;17465;47.934;33.430;2023-01-13T07:28:44;33.25;29.00;13.00
30713;PMS7003;17465;47.934;33.430;2023-01-13T07:31:18;23.50;18.25;11.00
30713;PMS7003;17465;47.934;33.430;2023-01-13T07:33:56;27.00;26.25;14.25
30713;PMS7003;17465;47.934;33.430;2023-01-13T07:36:27;25.00;23.25;10.25
30713;PMS7003;17465;47.934;33.430;2023-01-13T07:39:01;25.25;22.50;11.00
30713;PMS7003;17465;47.934;33.430;2023-01-13T07:41:33;28.50;24.25;8.25
30713;PMS7003;17465;47.934;33.430;2023-01-13T07:44:03;24.25;22.00;10.50
30713;PMS7003;17465;47.934;33.430;2023-01-13T07:46:35;23.75;22.75;12.25
30713;PMS7003;17465;47.934;33.430;2023-01-13T07:49:06;30.00;27.75;15.75
30713;PMS7003;17465;47.934;33.430;2023-01-13T07:51:38;28.00;24.00;12.75
30713;PMS7003;17465;47.934;33.430;2023-01-13T07:54:10;26.75;22.00;11.25
30713;PMS7003;17465;47.934;33.430;2023-01-13T07:56:40;26.25;20.50;11.50
30713;PMS7003;17465;47.934;33.430;2023-01-13T07:59:11;38.25;30.00;14.25
30713;PMS7003;17465;47.934;33.430;2023-01-13T08:01:41;20.50;18.50;10.00
30713;PMS7003;17465;47.934;33.430;2023-01-13T08:04:11;26.25;23.00;11.25
30713;PMS7003;17465;47.934;33.430;2023-01-13T08:06:42;22.50;19.50;8.00
30713;PMS7003;17465;47.934;33.430;2023-01-13T08:09:12;19.00;16.75;7.00
30713;PMS7003;17465;47.934;33.430;2023-01-13T08:11:43;21.00;21.00;13.00
30713;PMS7003;17465;47.934;33.430;2023-01-13T08:14:13;22.50;19.00;8.25
30713;PMS7003;17465;47.934;33.430;2023-01-13T08:16:43;24.75;22.50;7.75
30713;PMS7003;17465;47.934;33.430;2023-01-13T08:19:14;25.25;22.25;11.00
30713;PMS7003;17465;47.934;33.430;2023-01-13T08:21:44;27.00;26.00;12.75
30713;PMS7003;17465;47.934;33.430;2023-01-13T08:24:15;20.00;16.00;7.00
30713;PMS7003;17465;47.934;33.430;2023-01-13T08:26:46;26.00;21.75;10.00
30713;PMS7003;17465;47.934;33.430;2023-01-13T08:29:17;16.00;16.00;5.25
30713;PMS7003;17465;47.934;33.430;2023-01-13T08:31:47;16.00;14.50;7.50
30713;PMS7003;17465;47.934;33.430;2023-01-13T08:34:20;29.50;24.00;10.75
30713;PMS7003;17465;47.934;33.430;2023-01-13T08:36:52;27.75;22.25;11.50
30713;PMS7003;17465;47.934;33.430;2023-01-13T08:39:23;29.00;24.25;9.00
30713;PMS7003;17465;47.934;33.430;2023-01-13T08:41:55;17.00;16.25;8.00
30713;PMS7003;17465;47.934;33.430;2023-01-13T08:44:28;13.00;10.50;3.50
30713;PMS7003;17465;47.934;33.430;2023-01-13T08:47:02;26.00;26.00;12.00
30713;PMS7003;17465;47.934;33.430;2023-01-13T08:49:33;25.00;22.50;10.00
30713;PMS7003;17465;47.934;33.430;2023-01-13T08:52:07;22.25;22.25;9.50
30713;PMS7003;17465;47.934;33.430;2023-01-13T08:54:38;24.25;23.00;13.50
30713;PMS7003;17465;47.934;33.430;2023-01-13T08:57:13;26.00;21.50;10.50
30713;PMS7003;17465;47.934;33.430;2023-01-13T08:59:54;24.75;23.25;10.75
30713;PMS7003;17465;47.934;33.430;2023-01-13T09:02:34;20.75;19.50;8.00
30713;PMS7003;17465;47.934;33.430;2023-01-13T09:05:10;24.25;23.00;12.50
30713;PMS7003;17465;47.934;33.430;2023-01-13T09:07:56;27.25;21.50;12.50
30713;PMS7003;17465;47.934;33.430;2023-01-13T09:10:27;22.50;17.00;5.00
30713;PMS7003;17465;47.934;33.430;2023-01-13T09:13:02;29.00;21.25;10.75
30713;PMS7003;17465;47.934;33.430;2023-01-13T09:15:30;25.75;21.75;10.25
30713;PMS7003;17465;47.934;33.430;2023-01-13T09:18:01;24.75;22.50;11.00
30713;PMS7003;17465;47.934;33.430;2023-01-13T09:20:32;22.25;21.00;10.25
30713;PMS7003;17465;47.934;33.430;2023-01-13T09:23:03;30.00;24.25;13.25
30713;PMS7003;17465;47.934;33.430;2023-01-13T09:25:39;25.75;24.50;12.50
30713;PMS7003;17465;47.934;33.430;2023-01-13T09:28:10;29.25;23.75;13.25
30713;PMS7003;17465;47.934;33.430;2023-01-13T09:30:40;30.75;27.00;16.00
30713;PMS7003;17465;47.934;33.430;2023-01-13T09:33:12;26.50;22.50;12.25
30713;PMS7003;17465;47.934;33.430;2023-01-13T09:35:42;19.25;17.75;10.50
30713;PMS7003;17465;47.934;33.430;2023-01-13T09:38:12;26.00;23.25;11.00
30713;PMS7003;17465;47.934;33.430;2023-01-13T09:40:43;25.50;20.25;11.50
30713;PMS7003;17465;47.934;33.430;2023-01-13T09:43:17;22.50;20.00;10.75
30713;PMS7003;17465;47.934;33.430;2023-01-13T09:45:54;20.75;18.25;9.00
30713;PMS7003;17465;47.934;33.430;2023-01-13T09:48:31;26.00;23.50;13.50
30713;PMS7003;17465;47.934;33.430;2023-01-13T09:51:38;31.50;30.75;14.50
30713;PMS7003;17465;47.934;33.430;2023-01-13T09:56:42;22.50;19.75;8.00
30713;PMS7003;17465;47.934;33.430;2023-01-13T09:59:13;27.25;25.50;9.50
30713;PMS7003;17465;47.934;33.430;2023-01-13T10:01:54;21.75;19.75;10.75
30713;PMS7003;17465;47.934;33.430;2023-01-13T10:07:55;30.75;26.75;13.00
30713;PMS7003;17465;47.934;33.430;2023-01-13T10:10:42;32.00;26.25;13.00
30713;PMS7003;17465;47.934;33.430;2023-01-13T10:13:28;30.50;24.25;13.50
30713;PMS7003;17465;47.934;33.430;2023-01-13T10:19:11;24.00;19.25;9.75
30713;PMS7003;17465;47.934;33.430;2023-01-13T14:51:50;19.00;14.25;8.00
30713;PMS7003;17465;47.934;33.430;2023-01-13T14:57:32;8.75;7.00;4.50
30713;PMS7003;17465;47.934;33.430;2023-01-13T15:13:25;13.75;10.75;4.00
30713;PMS7003;17465;47.934;33.430;2023-01-13T15:15:58;17.25;14.75;8.50
30713;PMS7003;17465;47.934;33.430;2023-01-13T15:18:35;19.25;16.25;9.00
30713;PMS7003;17465;47.934;33.430;2023-01-13T15:21:09;18.00;16.00;11.00
30713;PMS7003;17465;47.934;33.430;2023-01-13T15:23:40;15.75;14.50;7.25
30713;PMS7003;17465;47.934;33.430;2023-01-13T15:26:19;16.75;15.25;9.00
30713;PMS7003;17465;47.934;33.430;2023-01-13T15:29:03;16.75;14.00;7.75
30713;PMS7003;17465;47.934;33.430;2023-01-13T15:31:21;19.00;17.00;8.00
30713;PMS7003;17465;47.934;33.430;2023-01-13T15:33:55;14.75;14.75;8.50
30713;PMS7003;17465;47.934;33.430;2023-01-13T15:36:27;14.25;13.00;7.75
30713;PMS7003;17465;47.934;33.430;2023-01-13T15:39:00;17.75;14.00;9.25
30713;PMS7003;17465;47.934;33.430;2023-01-13T15:41:31;17.00;14.25;7.75
30713;PMS7003;17465;47.934;33.430;2023-01-13T15:44:02;19.25;18.00;10.75
30713;PMS7003;17465;47.934;33.430;2023-01-13T15:46:32;17.25;17.25;9.25
30713;PMS7003;17465;47.934;33.430;2023-01-13T15:49:04;14.50;14.00;8.00
30713;PMS7003;17465;47.934;33.430;2023-01-13T15:51:55;17.50;15.50;7.75
30713;PMS7003;17465;47.934;33.430;2023-01-13T15:54:25;14.75;14.75;8.00
30713;PMS7003;17465;47.934;33.430;2023-01-13T15:56:55;12.00;9.75;2.00
30713;PMS7003;17465;47.934;33.430;2023-01-13T15:59:26;18.75;17.00;8.00
30713;PMS7003;17465;47.934;33.430;2023-01-13T16:01:57;13.00;11.25;7.25
30713;PMS7003;17465;47.934;33.430;2023-01-13T16:04:27;19.00;16.25;10.50
30713;PMS7003;17465;47.934;33.430;2023-01-13T16:06:58;20.00;20.00;9.25
30713;PMS7003;17465;47.934;33.430;2023-01-13T16:09:29;22.25;22.25;11.50
30713;PMS7003;17465;47.934;33.430;2023-01-13T16:12:02;21.00;19.50;11.00
30713;PMS7003;17465;47.934;33.430;2023-01-13T16:14:33;18.00;17.75;8.75
30713;PMS7003;17465;47.934;33.430;2023-01-13T16:17:10;21.25;21.25;13.00
30713;PMS7003;17465;47.934;33.430;2023-01-13T16:19:43;22.25;18.25;9.25
30713;PMS7003;17465;47.934;33.430;2023-01-13T16:22:17;28.00;23.25;16.50
30713;PMS7003;17465;47.934;33.430;2023-01-13T16:24:49;27.25;25.25;14.50
30713;PMS7003;17465;47.934;33.430;2023-01-13T16:27:20;33.75;26.00;17.75
30713;PMS7003;17465;47.934;33.430;2023-01-13T16:29:52;28.50;28.00;16.75
30713;PMS7003;17465;47.934;33.430;2023-01-13T16:32:22;33.25;27.75;16.50
30713;PMS7003;17465;47.934;33.430;2023-01-13T16:34:53;42.00;40.50;21.75
30713;PMS7003;17465;47.934;33.430;2023-01-13T16:37:24;35.25;33.50;17.25
30713;PMS7003;17465;47.934;33.430;2023-01-13T16:39:55;29.00;29.00;14.50
30713;PMS7003;17465;47.934;33.430;2023-01-13T16:42:27;29.75;26.75;15.00
30713;PMS7003;17465;47.934;33.430;2023-01-13T16:45:06;23.00;23.00;12.00
30713;PMS7003;17465;47.934;33.430;2023-01-13T16:47:37;24.00;21.25;12.50
30713;PMS7003;17465;47.934;33.430;2023-01-13T16:50:18;25.50;22.25;14.25
30713;PMS7003;17465;47.934;33.430;2023-01-13T16:53:04;31.25;25.50;17.50
30713;PMS7003;17465;47.934;33.430;2023-01-13T16:55:38;36.25;31.25;18.75
30713;PMS7003;17465;47.934;33.430;2023-01-13T16:58:20;35.50;31.50;18.00
30713;PMS7003;17465;47.934;33.430;2023-01-13T17:00:46;25.25;22.75;14.00
30713;PMS7003;17465;47.934;33.430;2023-01-13T17:03:16;18.00;18.00;9.25
30713;PMS7003;17465;47.934;33.430;2023-01-13T17:05:47;21.75;21.25;11.50
30713;PMS7003;17465;47.934;33.430;2023-01-13T17:08:17;21.75;21.50;12.25
30713;PMS7003;17465;47.934;33.430;2023-01-13T17:10:49;22.00;19.25;11.00
30713;PMS7003;17465;47.934;33.430;2023-01-13T17:13:20;20.00;18.50;11.50
30713;PMS7003;17465;47.934;33.430;2023-01-13T17:15:50;25.50;21.75;11.75
30713;PMS7003;17465;47.934;33.430;2023-01-13T17:18:20;30.00;25.00;14.75
30713;PMS7003;17465;47.934;33.430;2023-01-13T17:20:51;29.00;22.25;14.75
30713;PMS7003;17465;47.934;33.430;2023-01-13T17:23:21;28.25;22.50;11.50
30713;PMS7003;17465;47.934;33.430;2023-01-13T17:25:52;20.25;19.00;9.25
30713;PMS7003;17465;47.934;33.430;2023-01-13T17:28:22;26.75;23.00;13.00
30713;PMS7003;17465;47.934;33.430;2023-01-13T17:30:53;24.25;24.25;14.00
30713;PMS7003;17465;47.934;33.430;2023-01-13T17:33:23;23.00;21.00;13.00
30713;PMS7003;17465;47.934;33.430;2023-01-13T17:35:53;21.00;21.00;11.00
30713;PMS7003;17465;47.934;33.430;2023-01-13T17:38:24;13.50;13.50;6.50
30713;PMS7003;17465;47.934;33.430;2023-01-13T17:40:54;19.75;19.75;11.25
30713;PMS7003;17465;47.934;33.430;2023-01-13T17:43:37;20.00;15.50;7.25
30713;PMS7003;17465;47.934;33.430;2023-01-13T17:46:13;24.25;20.25;12.50
30713;PMS7003;17465;47.934;33.430;2023-01-13T17:48:40;21.25;21.25;14.00
30713;PMS7003;17465;47.934;33.430;2023-01-13T17:51:11;16.75;14.50;8.75
30713;PMS7003;17465;47.934;33.430;2023-01-13T17:53:44;24.00;18.25;8.50
30713;PMS7003;17465;47.934;33.430;2023-01-13T17:56:15;20.50;18.50;9.25
30713;PMS7003;17465;47.934;33.430;2023-01-13T17:58:45;17.75;14.50;6.00
30713;PMS7003;17465;47.934;33.430;2023-01-13T18:01:20;24.50;23.50;12.50
30713;PMS7003;17465;47.934;33.430;2023-01-13T18:03:51;24.50;22.75;12.75
30713;PMS7003;17465;47.934;33.430;2023-01-13T18:06:23;24.50;21.50;11.50
30713;PMS7003;17465;47.934;33.430;2023-01-13T18:08:58;18.75;18.75;11.75
30713;PMS7003;17465;47.934;33.430;2023-01-13T18:11:29;26.00;22.75;14.75
30713;PMS7003;17465;47.934;33.430;2023-01-13T18:14:01;7.75;7.75;2.00
30713;PMS7003;17465;47.934;33.430;2023-01-13T18:16:31;21.25;19.00;9.25
30713;PMS7003;17465;47.934;33.430;2023-01-13T18:19:02;19.25;18.75;10.50
30713;PMS7003;17465;47.934;33.430;2023-01-13T18:21:34;22.00;20.00;9.00
30713;PMS7003;17465;47.934;33.430;2023-01-13T18:24:07;23.50;18.00;11.00
30713;PMS7003;17465;47.934;33.430;2023-01-13T18:26:38;28.50;21.50;9.75
30713;PMS7003;17465;47.934;33.430;2023-01-13T18:29:09;25.75;25.75;16.00
30713;PMS7003;17465;47.934;33.430;2023-01-13T18:31:42;18.50;18.50;11.50
30713;PMS7003;17465;47.934;33.430;2023-01-13T18:34:12;25.75;24.00;12.50
30713;PMS7003;17465;47.934;33.430;2023-01-13T18:36:43;27.50;24.00;12.25
30713;PMS7003;17465;47.934;33.430;2023-01-13T18:39:13;22.25;20.75;9.75
30713;PMS7003;17465;47.934;33.430;2023-01-13T18:41:44;26.00;24.00;11.25
30713;PMS7003;17465;47.934;33.430;2023-01-13T18:44:28;27.25;23.75;14.25
30713;PMS7003;17465;47.934;33.430;2023-01-13T18:51:12;28.50;24.25;11.50
30713;PMS7003;17465;47.934;33.430;2023-01-13T18:54:36;28.50;25.00;11.50
30713;PMS7003;17465;47.934;33.430;2023-01-13T18:57:08;27.00;26.00;14.25
30713;PMS7003;17465;47.934;33.430;2023-01-13T18:59:38;25.25;20.50;11.00
30713;PMS7003;17465;47.934;33.430;2023-01-13T19:02:16;30.75;27.00;14.00
30713;PMS7003;17465;47.934;33.430;2023-01-13T19:05:06;29.75;28.50;16.50
30713;PMS7003;17465;47.934;33.430;2023-01-13T19:07:38;18.25;17.75;11.50
30713;PMS7003;17465;47.934;33.430;2023-01-13T19:10:08;30.00;28.50;16.00
30713;PMS7003;17465;47.934;33.430;2023-01-13T19:12:40;25.00;22.50;13.00
30713;PMS7003;17465;47.934;33.430;2023-01-13T19:15:11;22.00;22.00;9.25
30713;PMS7003;17465;47.934;33.430;2023-01-13T19:17:44;21.50;21.00;10.75
30713;PMS7003;17465;47.934;33.430;2023-01-13T19:20:20;20.75;12.50;4.50
30713;PMS7003;17465;47.934;33.430;2023-01-13T19:25:46;22.50;21.00;8.75
30713;PMS7003;17465;47.934;33.430;2023-01-13T19:28:17;24.50;23.00;13.50
30713;PMS7003;17465;47.934;33.430;2023-01-13T19:30:49;25.75;21.75;11.00
30713;PMS7003;17465;47.934;33.430;2023-01-13T19:33:21;18.00;15.50;9.00
30713;PMS7003;17465;47.934;33.430;2023-01-13T19:41:35;21.50;18.25;10.50
30713;PMS7003;17465;47.934;33.430;2023-01-13T19:47:03;24.25;20.75;11.50
30713;PMS7003;17465;47.934;33.430;2023-01-13T19:49:34;20.00;18.25;13.75